This is the latest recevied weather packets stored in our database for station/object M0IQF-13. If no packets are shown the sender has not sent any weather packets the latest 10 day(s).
| Time | Temp. | Humidity | Pressure | Rain* | Wind** | Luminosity | Snow |
|---|---|---|---|---|---|---|---|
| 1777244249 | 17.22° C | 64% | 1024.2 hPa | - | - | - | - |
| 1777243343 | 16.67° C | 68% | 1024.1 hPa | - | - | - | - |
| 1777242428 | 16.67° C | 67% | 1024 hPa | - | - | - | - |
| 1777241521 | 16.67° C | 69% | 1023.9 hPa | - | - | - | - |
| 1777240614 | 16.67° C | 69% | 1023.8 hPa | - | - | - | - |
| 1777239708 | 16.67° C | 67% | 1023.8 hPa | - | - | - | - |
| 1777238800 | 17.22° C | 65% | 1023.9 hPa | - | - | - | - |
| 1777237893 | 17.78° C | 61% | 1023.8 hPa | - | - | - | - |
| 1777236986 | 18.33° C | 62% | 1023.8 hPa | - | - | - | - |
| 1777236079 | 17.78° C | 61% | 1023.6 hPa | - | - | - | - |
| 1777235172 | 17.78° C | 61% | 1023.8 hPa | - | - | - | - |
| 1777234265 | 18.33° C | 56% | 1023.7 hPa | - | - | - | - |
| 1777233358 | 19.44° C | 53% | 1023.6 hPa | - | - | - | - |
| 1777232450 | 20° C | 52% | 1023.6 hPa | - | - | - | - |
| 1777231544 | 19.44° C | 53% | 1023.4 hPa | - | - | - | - |
| 1777230636 | 20° C | 50% | 1023.2 hPa | - | - | - | - |
| 1777229730 | 20.56° C | 44% | 1023.2 hPa | - | - | - | - |
| 1777228822 | 21.67° C | 41% | 1023.1 hPa | - | - | - | - |
| 1777227915 | 21.67° C | 39% | 1022.9 hPa | - | - | - | - |
| 1777227008 | 22.22° C | 37% | 1022.8 hPa | - | - | - | - |
| 1777226101 | 22.78° C | 35% | 1022.6 hPa | - | - | - | - |
| 1777225194 | 23.89° C | 32% | 1022.7 hPa | - | - | - | - |
| 1777224287 | 24.44° C | 29% | 1022.7 hPa | - | - | - | - |
| 1777223380 | 24.44° C | 27% | 1022.7 hPa | - | - | - | - |
| 1777222473 | 25.56° C | 26% | 1022.7 hPa | - | - | - | - |
* Rain since midnight (hover to see other rain measurements)
** Current wind speed in m/s (hover to see current wind gust speed)